Time;durP1;ratioP1;P1;durP2;ratioP2;P2;SDS_P1;SDS_P2;PMS_P1;PMS_P2;Temp;Humidity;BMP_temperature;BMP_pressure;BME280_temperature;BME280_humidity;BME280_pressure;Samples;Min_cycle;Max_cycle;Signal;HPM_P1;HPM_P2
2022/05/24 00:00:07;;;;;;;31.10;14.83;;;;;;;6.19;75.47;99097.66;1727973;81;21128;-75
2022/05/24 00:02:37;;;;;;;26.05;14.23;;;;;;;6.18;75.56;99095.92;1752322;81;21058;-76
2022/05/24 00:05:05;;;;;;;29.72;13.85;;;;;;;6.15;75.69;99098.61;1748865;81;20996;-76
2022/05/24 00:07:32;;;;;;;23.83;13.60;;;;;;;6.12;75.80;99108.70;1722450;83;21109;-77
2022/05/24 00:10:00;;;;;;;25.00;13.58;;;;;;;6.10;75.74;99107.00;1722876;83;20969;-77
2022/05/24 00:12:28;;;;;;;28.00;13.18;;;;;;;6.07;75.57;99107.06;1722659;83;21125;-76
2022/05/24 00:17:39;;;;;;;28.98;14.90;;;;;;;6.03;75.63;99110.66;1722777;83;21329;-76
2022/05/24 00:20:09;;;;;;;31.87;14.47;;;;;;;6.00;75.68;99114.63;1722392;82;21093;-77
2022/05/24 00:22:36;;;;;;;27.02;14.07;;;;;;;5.95;75.61;99116.00;1698054;83;21122;-77
2022/05/24 00:25:04;;;;;;;31.20;13.50;;;;;;;5.90;75.71;99110.91;1722636;82;21107;-77
2022/05/24 00:27:32;;;;;;;34.08;14.40;;;;;;;5.85;75.87;99110.15;1722657;83;21518;-76
2022/05/24 00:29:58;;;;;;;29.60;14.75;;;;;;;5.84;76.02;99114.95;1722400;83;21050;-77
2022/05/24 00:32:25;;;;;;;31.20;13.78;;;;;;;5.83;76.09;99109.30;1722621;83;21538;-76
2022/05/24 00:34:51;;;;;;;27.13;13.68;;;;;;;5.80;76.25;99108.09;1722420;83;21537;-76
2022/05/24 00:37:19;;;;;;;26.87;14.58;;;;;;;5.77;76.27;99111.61;1722727;83;21792;-77
2022/05/24 00:39:47;;;;;;;25.68;14.00;;;;;;;5.75;76.18;99109.94;1698406;83;21148;-76
2022/05/24 00:42:17;;;;;;;29.07;14.70;;;;;;;5.72;76.20;99107.39;1722596;83;21023;-77
2022/05/24 00:45:05;;;;;;;28.02;14.87;;;;;;;5.73;76.25;99111.70;1722847;83;21054;-77
2022/05/24 00:47:41;;;;;;;27.35;14.23;;;;;;;5.70;76.24;99110.03;1722681;83;20995;-76
2022/05/24 00:50:17;;;;;;;25.80;14.45;;;;;;;5.67;76.40;99109.23;1722738;82;21053;-77
2022/05/24 00:52:55;;;;;;;25.23;13.93;;;;;;;5.64;76.58;99113.21;1722884;83;20992;-77
2022/05/24 00:55:24;;;;;;;27.05;14.07;;;;;;;5.60;76.45;99112.42;1722634;83;20960;-76
2022/05/24 00:58:15;;;;;;;29.95;14.47;;;;;;;5.55;76.52;99116.42;1722558;83;21038;-76
2022/05/24 01:00:41;;;;;;;31.23;15.32;;;;;;;5.55;76.53;99114.27;1722613;82;20999;-76
2022/05/24 01:03:10;;;;;;;30.00;14.63;;;;;;;5.52;76.67;99123.00;1722565;83;21782;-77
2022/05/24 01:05:38;;;;;;;31.57;15.00;;;;;;;5.49;76.85;99120.45;1698003;83;21094;-77
2022/05/24 01:08:05;;;;;;;34.13;16.77;;;;;;;5.47;76.84;99125.30;1722598;83;21003;-76
2022/05/24 01:10:40;;;;;;;34.20;15.13;;;;;;;5.44;76.92;99126.21;1722635;82;21070;-77
2022/05/24 01:13:11;;;;;;;44.58;18.00;;;;;;;5.43;76.91;99120.59;1727070;83;21002;-77
2022/05/24 01:15:38;;;;;;;37.10;17.17;;;;;;;5.43;76.89;99121.02;1728483;83;21163;-77
2022/05/24 01:18:04;;;;;;;32.98;16.75;;;;;;;5.40;77.12;99121.96;1728255;83;21038;-76
2022/05/24 01:20:31;;;;;;;33.50;16.80;;;;;;;5.38;77.11;99118.53;1728299;83;22224;-77
2022/05/24 01:23:25;;;;;;;39.98;18.73;;;;;;;5.34;77.08;99122.92;1728609;83;21058;-76
2022/05/24 01:26:05;;;;;;;45.67;20.45;;;;;;;5.33;77.14;99122.52;1728103;83;21489;-76
2022/05/24 01:28:53;;;;;;;44.53;20.27;;;;;;;5.34;77.22;99124.67;1728197;83;22440;-77
2022/05/24 01:31:21;;;;;;;40.48;19.98;;;;;;;5.30;77.33;99122.58;1728228;83;21002;-76
2022/05/24 01:36:36;;;;;;;37.90;18.27;;;;;;;5.22;77.32;99120.56;1728281;83;21104;-77
2022/05/24 01:39:06;;;;;;;38.45;18.05;;;;;;;5.17;77.19;99117.19;1728319;83;21180;-76
2022/05/24 01:41:47;;;;;;;47.80;19.45;;;;;;;5.14;77.27;99119.39;1728180;83;21182;-76
2022/05/24 01:44:18;;;;;;;34.20;16.97;;;;;;;5.11;77.37;99123.39;1728227;83;21096;-77
2022/05/24 01:46:45;;;;;;;32.85;16.00;;;;;;;5.09;77.42;99125.14;1727264;83;21600;-76
2022/05/24 01:49:21;;;;;;;33.58;15.32;;;;;;;5.07;77.51;99124.31;1728052;83;21064;-76
2022/05/24 01:51:55;;;;;;;32.42;14.87;;;;;;;5.06;77.56;99125.22;1702957;83;21002;-77
2022/05/24 01:54:22;;;;;;;25.77;15.13;;;;;;;5.00;77.24;99121.41;1726964;82;21888;-76
2022/05/24 01:56:59;;;;;;;24.70;15.18;;;;;;;4.98;77.32;99134.92;1725340;83;21103;-77
2022/05/24 01:59:26;;;;;;;29.82;16.12;;;;;;;4.94;77.23;99128.03;1725541;82;21124;-77
2022/05/24 02:01:58;;;;;;;33.80;15.35;;;;;;;4.90;77.34;99128.98;1722084;83;21023;-77
2022/05/24 02:04:26;;;;;;;31.75;15.03;;;;;;;4.87;77.41;99144.67;1723907;83;21081;-77
2022/05/24 02:07:17;;;;;;;23.27;13.98;;;;;;;4.83;77.45;99138.20;1723615;83;21910;-77
2022/05/24 02:09:46;;;;;;;32.40;15.63;;;;;;;4.81;77.59;99139.98;1723793;83;21165;-76
2022/05/24 02:12:37;;;;;;;33.55;16.02;;;;;;;4.82;77.90;99150.84;1724168;83;21065;-76
2022/05/24 02:15:10;;;;;;;28.80;14.50;;;;;;;4.81;78.11;99140.44;1723582;83;22311;-77
2022/05/24 02:17:49;;;;;;;29.15;14.30;;;;;;;4.80;78.19;99148.68;1724167;83;21533;-76
2022/05/24 02:20:24;;;;;;;34.27;16.02;;;;;;;4.79;78.19;99150.01;1723863;83;21141;-77
2022/05/24 02:22:50;;;;;;;34.08;16.52;;;;;;;4.80;78.46;99149.98;1732345;82;21033;-77
2022/05/24 02:25:21;;;;;;;31.57;17.07;;;;;;;4.80;78.50;99147.37;1732136;82;21069;-76
2022/05/24 02:27:48;;;;;;;33.05;16.70;;;;;;;4.79;78.67;99148.28;1731973;82;21631;-76
2022/05/24 02:30:20;;;;;;;29.77;16.07;;;;;;;4.80;78.74;99145.22;1732051;82;21007;-76
2022/05/24 02:32:47;;;;;;;35.75;15.75;;;;;;;4.80;78.76;99148.68;1732240;82;21776;-77
2022/05/24 02:35:14;;;;;;;39.58;15.75;;;;;;;4.85;78.79;99152.52;1732266;82;21015;-77
2022/05/24 02:37:42;;;;;;;29.32;16.00;;;;;;;4.87;78.81;99155.11;1732093;82;21066;-76
2022/05/24 02:42:56;;;;;;;32.65;16.02;;;;;;;4.91;78.83;99148.94;1732250;82;21031;-77
2022/05/24 02:45:22;;;;;;;30.72;15.93;;;;;;;4.93;78.86;99147.19;1732373;82;21195;-77
2022/05/24 02:47:49;;;;;;;31.05;16.32;;;;;;;4.96;78.85;99149.72;1732180;82;21117;-77
2022/05/24 02:50:16;;;;;;;35.70;17.15;;;;;;;5.01;78.85;99151.38;1732029;82;21035;-77
2022/05/24 02:52:43;;;;;;;30.57;17.17;;;;;;;5.04;78.91;99145.22;1732353;82;21077;-78
2022/05/24 02:55:11;;;;;;;41.53;17.45;;;;;;;5.08;78.96;99149.52;1732399;82;21038;-77
2022/05/24 02:57:40;;;;;;;29.72;15.48;;;;;;;5.14;79.04;99149.38;1732365;82;21103;-77
2022/05/24 03:00:11;;;;;;;36.28;17.65;;;;;;;5.21;79.05;99156.22;1732094;82;21097;-77
2022/05/24 03:02:41;;;;;;;37.50;18.07;;;;;;;5.29;78.90;99155.21;1734000;80;21003;-76
2022/05/24 03:05:10;;;;;;;35.20;17.17;;;;;;;5.36;78.83;99168.55;1735850;82;21033;-76
2022/05/24 03:10:25;;;;;;;37.98;17.80;;;;;;;5.49;78.87;99166.12;1735860;82;21242;-77
2022/05/24 03:15:40;;;;;;;28.90;16.20;;;;;;;5.66;78.97;99181.89;1736093;81;21196;-77
2022/05/24 03:18:08;;;;;;;29.82;15.80;;;;;;;5.74;78.88;99176.92;1735958;82;21538;-77
2022/05/24 03:20:35;;;;;;;29.37;15.53;;;;;;;5.82;78.93;99179.84;1735750;82;21126;-77
2022/05/24 03:23:03;;;;;;;28.52;15.75;;;;;;;5.89;78.88;99176.21;1735779;82;21105;-77
2022/05/24 03:25:32;;;;;;;29.15;16.67;;;;;;;5.97;78.76;99179.98;1736004;82;21058;-77
2022/05/24 03:28:00;;;;;;;32.95;17.60;;;;;;;6.05;78.74;99178.95;1735689;82;21062;-77
2022/05/24 03:30:27;;;;;;;32.65;16.75;;;;;;;6.15;78.70;99184.80;1736338;82;21130;-77
2022/05/24 03:32:53;;;;;;;33.73;18.07;;;;;;;6.25;78.55;99188.08;1736103;82;21149;-77
2022/05/24 03:35:20;;;;;;;37.83;18.35;;;;;;;6.35;78.46;99185.67;1736018;82;21564;-77
2022/05/24 03:37:48;;;;;;;31.95;17.45;;;;;;;6.46;78.37;99191.52;1735832;82;21106;-77
2022/05/24 03:40:15;;;;;;;32.23;15.98;;;;;;;6.59;77.98;99198.64;1735928;82;21126;-77
2022/05/24 03:42:42;;;;;;;31.70;16.37;;;;;;;6.74;77.47;99192.19;1735775;82;21066;-77
2022/05/24 03:45:10;;;;;;;30.92;15.63;;;;;;;6.90;76.95;99188.73;1735586;82;21055;-76
2022/05/24 03:47:38;;;;;;;35.23;16.62;;;;;;;7.01;76.67;99180.17;1735976;82;21089;-77
2022/05/24 03:50:06;;;;;;;36.73;16.67;;;;;;;7.12;76.24;99173.80;1736059;82;21050;-77
2022/05/24 03:52:34;;;;;;;31.45;15.85;;;;;;;7.24;75.58;99178.70;1735867;82;21074;-77
2022/05/24 03:55:01;;;;;;;31.77;16.42;;;;;;;7.36;74.87;99179.71;1736056;81;21035;-77
2022/05/24 04:00:14;;;;;;;33.53;17.12;;;;;;;7.63;73.73;99176.78;1736130;82;21150;-77
2022/05/24 04:02:41;;;;;;;34.23;15.90;;;;;;;7.80;73.19;99176.30;1735709;82;21510;-77
2022/05/24 04:05:10;;;;;;;33.70;16.05;;;;;;;7.94;72.83;99173.27;1735792;82;21031;-77
2022/05/24 04:07:37;;;;;;;31.23;16.55;;;;;;;8.07;72.42;99184.26;1735978;82;21120;-77
2022/05/24 04:10:04;;;;;;;28.32;15.75;;;;;;;8.19;72.11;99181.26;1748591;81;21047;-77
2022/05/24 04:12:31;;;;;;;27.20;14.55;;;;;;;8.32;71.86;99187.42;1724382;83;21109;-77
2022/05/24 04:14:58;;;;;;;26.97;14.15;;;;;;;8.41;71.06;99189.78;1724006;83;21003;-78
2022/05/24 04:17:24;;;;;;;27.77;13.38;;;;;;;8.57;70.63;99192.80;1724067;83;21030;-76
2022/05/24 04:19:51;;;;;;;24.40;12.80;;;;;;;8.73;69.95;99190.56;1723872;83;21109;-77
2022/05/24 04:22:17;;;;;;;21.35;12.13;;;;;;;8.90;69.60;99194.78;1723728;83;21011;-77
2022/05/24 04:24:46;;;;;;;23.95;12.15;;;;;;;9.06;68.94;99194.27;1718899;83;21939;-77
2022/05/24 04:27:13;;;;;;;23.62;11.15;;;;;;;9.19;68.01;99192.95;1723872;83;21424;-77
2022/05/24 04:29:41;;;;;;;18.55;10.72;;;;;;;9.35;67.52;99192.45;1724319;83;21593;-77
2022/05/24 04:32:08;;;;;;;14.85;9.13;;;;;;;9.48;67.53;99197.21;1723866;83;21154;-76
2022/05/24 04:34:36;;;;;;;21.82;8.48;;;;;;;9.64;66.60;99200.59;1723892;83;21510;-77
2022/05/24 04:37:07;;;;;;;19.07;9.35;;;;;;;9.83;64.82;99195.52;1732226;82;21750;-76
2022/05/24 04:39:35;;;;;;;12.37;7.62;;;;;;;9.99;63.28;99198.46;1732012;82;21284;-76
2022/05/24 04:42:21;;;;;;;12.85;7.67;;;;;;;10.17;62.29;99196.45;1732304;82;21011;-77
2022/05/24 04:44:56;;;;;;;14.43;7.60;;;;;;;10.32;62.06;99197.67;1732166;82;21074;-77
2022/05/24 04:47:23;;;;;;;17.05;7.20;;;;;;;10.48;60.69;99197.07;1732308;82;21069;-77
2022/05/24 04:49:54;;;;;;;14.65;7.03;;;;;;;10.65;59.59;99199.03;1732269;82;21609;-77
2022/05/24 04:52:26;;;;;;;10.03;6.97;;;;;;;10.80;58.50;99202.82;1732528;82;21094;-77
2022/05/24 04:54:52;;;;;;;16.23;6.87;;;;;;;10.94;57.83;99198.71;1732011;81;21062;-76
2022/05/24 04:57:20;;;;;;;14.15;6.53;;;;;;;11.09;57.07;99206.41;1732129;82;21050;-76
2022/05/24 04:59:47;;;;;;;13.45;6.00;;;;;;;11.23;56.81;99207.16;1732157;82;21051;-77
2022/05/24 05:02:14;;;;;;;10.78;6.17;;;;;;;11.39;55.93;99206.51;1732496;82;21090;-76
2022/05/24 05:04:40;;;;;;;12.58;6.62;;;;;;;11.50;55.39;99201.17;1732235;82;20999;-76
2022/05/24 05:07:07;;;;;;;10.32;6.08;;;;;;;11.62;55.12;99208.16;1732024;82;21026;-77
2022/05/24 05:09:38;;;;;;;13.93;6.17;;;;;;;11.73;54.13;99207.20;1732392;82;21011;-76
2022/05/24 05:12:06;;;;;;;9.18;5.92;;;;;;;11.87;53.17;99206.13;1765855;80;21561;-76
2022/05/24 05:14:34;;;;;;;10.68;6.03;;;;;;;12.01;52.19;99206.00;1788299;80;21127;-76
2022/05/24 05:17:01;;;;;;;10.13;5.62;;;;;;;12.15;51.61;99204.89;1787909;80;21048;-77
2022/05/24 05:19:30;;;;;;;11.10;4.87;;;;;;;12.26;51.01;99201.30;1788021;80;21098;-77
2022/05/24 05:21:57;;;;;;;10.93;4.35;;;;;;;12.38;48.84;99208.27;1788193;80;21060;-76
2022/05/24 05:24:24;;;;;;;6.60;4.67;;;;;;;12.49;48.49;99213.89;1788079;80;21562;-77
2022/05/24 05:26:53;;;;;;;7.33;4.53;;;;;;;12.61;48.73;99208.02;1787934;80;21562;-77
2022/05/24 05:31:16;;;;;;;9.93;4.85;;;;;;;12.74;47.03;99207.42;1787702;80;21060;-77
2022/05/24 05:31:48;;;;;;;9.50;4.97;;;;;;;12.86;46.55;99205.53;1783420;80;21139;-77
2022/05/24 05:34:16;;;;;;;10.98;5.15;;;;;;;12.96;46.20;99212.06;1787790;80;21044;-77
2022/05/24 05:36:43;;;;;;;9.70;4.37;;;;;;;13.09;45.87;99215.41;1787732;80;21163;-77
2022/05/24 05:39:10;;;;;;;8.23;4.12;;;;;;;13.20;45.92;99214.41;1788029;80;21088;-77
2022/05/24 05:41:37;;;;;;;11.28;4.62;;;;;;;13.29;43.28;99217.89;1788058;80;20981;-77
2022/05/24 05:44:04;;;;;;;16.02;4.47;;;;;;;13.39;43.58;99209.07;1787823;80;21086;-77
2022/05/24 05:46:31;;;;;;;6.58;3.90;;;;;;;13.50;42.64;99208.51;1787986;80;21013;-76
2022/05/24 05:48:59;;;;;;;9.28;4.15;;;;;;;13.62;43.70;99209.22;1788213;80;21517;-77
2022/05/24 05:51:26;;;;;;;10.05;4.20;;;;;;;13.72;42.83;99210.44;1787913;80;21773;-77
2022/05/24 05:53:52;;;;;;;11.97;4.30;;;;;;;13.80;42.12;99207.41;1788017;80;21499;-77
2022/05/24 05:56:22;;;;;;;10.48;4.35;;;;;;;13.87;41.53;99203.49;1789885;80;21040;-76
2022/05/24 05:58:49;;;;;;;8.28;4.58;;;;;;;13.95;40.28;99204.39;1791164;80;21095;-77
2022/05/24 06:01:21;;;;;;;8.63;4.12;;;;;;;14.04;41.41;99205.23;1791234;80;21606;-77
2022/05/24 06:03:50;;;;;;;7.15;4.72;;;;;;;14.15;41.39;99206.44;1791442;80;21820;-77
2022/05/24 06:06:20;;;;;;;8.93;4.72;;;;;;;14.25;40.83;99209.81;1772496;80;21629;-77
2022/05/24 06:08:48;;;;;;;6.85;4.10;;;;;;;14.34;40.31;99208.47;1753800;81;21066;-76
2022/05/24 06:11:16;;;;;;;11.57;3.95;;;;;;;14.43;39.57;99211.92;1753612;81;21062;-77
2022/05/24 06:13:44;;;;;;;7.25;3.92;;;;;;;14.51;38.07;99207.54;1753811;81;21647;-77
2022/05/24 06:16:10;;;;;;;5.28;3.02;;;;;;;14.59;38.41;99209.32;1753747;81;21874;-76
2022/05/24 06:18:37;;;;;;;5.87;2.35;;;;;;;14.67;37.11;99214.17;1753860;81;21527;-76
2022/05/24 06:21:04;;;;;;;3.83;2.50;;;;;;;14.72;37.04;99217.89;1753649;81;21585;-77
2022/05/24 06:23:32;;;;;;;1.80;1.70;;;;;;;14.80;35.60;99223.13;1753842;81;21063;-77
2022/05/24 06:25:58;;;;;;;2.92;2.15;;;;;;;14.88;34.17;99212.11;1754186;81;21082;-77
2022/05/24 06:28:26;;;;;;;5.00;2.40;;;;;;;14.94;34.80;99216.19;1753776;81;21134;-77
2022/05/24 06:30:53;;;;;;;5.58;1.85;;;;;;;15.00;35.96;99214.05;1753991;81;21075;-77
2022/05/24 06:33:20;;;;;;;2.45;1.40;;;;;;;15.10;34.98;99221.00;1753701;81;21070;-77
2022/05/24 06:35:47;;;;;;;6.30;1.77;;;;;;;15.17;33.17;99215.71;1753723;81;21071;-76
2022/05/24 06:38:16;;;;;;;6.37;1.85;;;;;;;15.23;33.09;99218.02;1753868;81;21588;-76
2022/05/24 06:40:43;;;;;;;5.97;2.62;;;;;;;15.33;33.26;99213.48;1753761;81;21144;-76
2022/05/24 06:43:10;;;;;;;9.05;1.92;;;;;;;15.44;33.67;99216.84;1753587;81;21071;-76
2022/05/24 06:45:37;;;;;;;4.40;1.85;;;;;;;15.55;34.04;99215.70;1753922;81;21118;-76
2022/05/24 06:48:07;;;;;;;6.17;1.70;;;;;;;15.61;31.50;99217.52;1753983;81;21023;-76
2022/05/24 06:50:34;;;;;;;3.45;2.30;;;;;;;15.65;32.10;99219.98;1730882;81;21558;-77
2022/05/24 06:53:01;;;;;;;5.92;2.02;;;;;;;15.67;32.26;99216.31;1753928;81;21138;-77
2022/05/24 06:55:28;;;;;;;4.00;1.95;;;;;;;15.66;31.87;99213.75;1748830;81;21026;-77
2022/05/24 06:57:54;;;;;;;3.12;2.05;;;;;;;15.67;32.05;99221.62;1732143;82;21156;-77
2022/05/24 07:03:11;;;;;;;3.52;2.10;;;;;;;15.74;32.56;99222.94;1732366;82;21031;-77
2022/05/24 07:05:39;;;;;;;4.55;2.30;;;;;;;15.85;33.03;99219.66;1732293;82;21214;-76
2022/05/24 07:08:07;;;;;;;17.98;2.20;;;;;;;15.93;32.44;99228.48;1732057;82;21007;-78
2022/05/24 07:10:35;;;;;;;6.87;2.10;;;;;;;15.97;32.44;99228.69;1732066;82;21113;-76
2022/05/24 07:13:09;;;;;;;3.17;2.17;;;;;;;16.04;32.39;99221.17;1735112;82;21042;-75
2022/05/24 07:15:37;;;;;;;4.67;2.30;;;;;;;16.12;33.44;99221.11;1736143;82;21088;-78
2022/05/24 07:18:03;;;;;;;32.40;22.80;;;;;;;16.21;31.95;99220.16;1735747;82;22342;-78
2022/05/24 07:20:33;;;;;;;4.83;2.90;;;;;;;16.25;30.96;99223.83;1735573;82;21070;-76
2022/05/24 07:23:16;;;;;;;3.92;2.05;;;;;;;16.28;31.24;99230.27;1735867;82;21083;-77
2022/05/24 07:25:44;;;;;;;3.45;1.92;;;;;;;16.35;32.03;99225.43;1735886;82;21077;-77
2022/05/24 07:28:11;;;;;;;2.42;1.72;;;;;;;16.43;30.84;99228.94;1736374;82;21035;-76
2022/05/24 07:30:39;;;;;;;3.08;1.80;;;;;;;16.48;32.23;99233.48;1736232;82;21521;-79
2022/05/24 07:33:06;;;;;;;4.22;1.70;;;;;;;16.56;32.31;99236.51;1736101;82;21157;-75
2022/05/24 07:35:32;;;;;;;5.70;1.47;;;;;;;16.65;31.73;99237.23;1735607;82;21502;-77
2022/05/24 07:37:59;;;;;;;3.55;2.27;;;;;;;16.72;31.25;99233.22;1735975;82;21614;-75
2022/05/24 07:45:59;;;;;;;4.60;1.50;;;;;;;17.00;31.20;99236.78;1735997;82;20221;-74
2022/05/24 07:48:26;;;;;;;8.05;1.80;;;;;;;17.00;30.17;99235.45;1735325;82;21528;-73
2022/05/24 07:50:52;;;;;;;2.75;1.90;;;;;;;17.00;30.33;99235.45;1736042;82;21754;-75
2022/05/24 07:53:19;;;;;;;1.85;1.35;;;;;;;17.06;29.54;99236.39;1735752;82;21509;-74
2022/05/24 07:55:45;;;;;;;5.80;1.60;;;;;;;17.06;29.70;99230.20;1737147;81;22221;-75
2022/05/24 07:58:12;;;;;;;3.98;1.90;;;;;;;17.08;30.16;99225.17;1737922;81;21124;-76
2022/05/24 08:00:39;;;;;;;2.17;1.52;;;;;;;17.09;29.29;99232.17;1738271;82;21549;-76
2022/05/24 08:03:06;;;;;;;5.58;1.82;;;;;;;17.12;30.43;99227.64;1738518;82;21038;-76
2022/05/24 08:05:34;;;;;;;1.67;1.30;;;;;;;17.19;30.33;99232.91;1738455;82;21599;-76
2022/05/24 08:08:00;;;;;;;2.33;1.60;;;;;;;17.25;29.03;99229.37;1738794;82;22264;-76
2022/05/24 08:10:28;;;;;;;3.08;1.40;;;;;;;17.31;29.80;99229.42;1738261;82;20998;-76
2022/05/24 08:12:57;;;;;;;3.52;1.62;;;;;;;17.39;28.18;99235.56;1738514;82;21061;-76
2022/05/24 08:15:24;;;;;;;3.75;2.10;;;;;;;17.43;28.11;99241.91;1703760;82;21167;-77
2022/05/24 08:17:51;;;;;;;2.45;1.57;;;;;;;17.44;28.51;99240.94;1680339;85;21096;-76
2022/05/24 08:20:18;;;;;;;3.10;1.22;;;;;;;17.52;29.22;99239.59;1680881;85;21049;-76
2022/05/24 08:22:44;;;;;;;1.70;1.60;;;;;;;17.61;29.75;99236.29;1680349;85;21537;-75
2022/05/24 08:25:11;;;;;;;3.00;1.45;;;;;;;17.73;29.09;99232.78;1680242;85;21142;-77
2022/05/24 08:27:38;;;;;;;212.72;138.15;;;;;;;17.82;27.85;99233.98;1680539;83;21713;-78
2022/05/24 08:30:06;;;;;;;11.95;10.13;;;;;;;17.85;29.25;99231.56;1680386;84;21598;-79
2022/05/24 08:32:34;;;;;;;3.33;2.65;;;;;;;17.94;28.89;99237.14;1680725;85;21121;-80
2022/05/24 08:35:02;;;;;;;2.25;1.85;;;;;;;18.04;28.70;99237.81;1680546;85;21171;-76
2022/05/24 08:37:30;;;;;;;3.72;1.50;;;;;;;18.13;28.72;99239.36;1680259;85;21115;-76
2022/05/24 08:39:59;;;;;;;5.03;1.40;;;;;;;18.23;28.01;99237.39;1680679;84;21068;-74
2022/05/24 08:42:39;;;;;;;3.27;1.52;;;;;;;18.29;27.67;99236.94;1680288;85;21246;-75
2022/05/24 08:48:32;;;;;;;5.62;1.42;;;;;;;18.19;28.60;99225.63;1680420;85;21637;-79
2022/05/24 08:51:04;;;;;;;6.50;1.62;;;;;;;18.27;28.32;99224.22;1680750;85;21017;-76
2022/05/24 08:53:36;;;;;;;3.27;1.50;;;;;;;18.34;28.02;99226.80;1680379;85;21104;-77
2022/05/24 08:56:05;;;;;;;3.17;1.60;;;;;;;18.46;28.56;99232.61;1680779;85;21532;-78
2022/05/24 08:58:38;;;;;;;2.22;1.57;;;;;;;18.59;29.15;99229.89;1701946;83;21137;-75
2022/05/24 09:01:26;;;;;;;3.95;1.72;;;;;;;18.69;28.24;99236.73;1706035;84;21090;-77
2022/05/24 09:03:52;;;;;;;7.03;2.00;;;;;;;18.82;29.16;99232.70;1706190;84;21074;-82
2022/05/24 09:06:27;;;;;;;4.80;1.30;;;;;;;18.93;28.15;99234.98;1705966;84;21011;-75
2022/05/24 09:09:17;;;;;;;10.28;2.52;;;;;;;19.01;27.76;99239.73;1706314;83;21141;-79
2022/05/24 09:12:01;;;;;;;1.87;1.22;;;;;;;19.05;28.57;99233.72;1724622;82;22282;-78
2022/05/24 09:14:43;;;;;;;10.82;6.60;;;;;;;19.07;26.91;99229.11;1735858;82;21014;-76
2022/05/24 09:17:49;;;;;;;1.67;1.40;;;;;;;19.05;26.87;99229.22;1735509;82;21014;-76
2022/05/24 09:20:39;;;;;;;7.35;1.67;;;;;;;19.03;26.78;99228.95;1699790;84;21116;-78
2022/05/24 09:23:35;;;;;;;1.80;1.50;;;;;;;18.96;27.02;99235.72;1712965;83;21147;-79
2022/05/24 09:26:10;;;;;;;4.80;2.10;;;;;;;19.06;26.86;99228.73;1707858;83;21272;-80
2022/05/24 09:28:50;;;;;;;1.17;1.07;;;;;;;19.18;26.05;99225.17;1735849;82;21077;-76
2022/05/24 09:31:37;;;;;;;1.87;1.20;;;;;;;19.18;26.72;99226.50;1735412;82;21587;-77
2022/05/24 09:34:22;;;;;;;3.70;1.40;;;;;;;19.27;27.09;99220.46;1735980;82;21126;-77
2022/05/24 09:36:58;;;;;;;;;;;;;;;19.37;26.57;99227.78;1738141;82;21010;-79
2022/05/24 09:39:30;;;;;;;;;;;;;;;19.42;26.72;99218.45;1738152;82;21822;-76
2022/05/24 09:42:02;;;;;;;5.05;1.70;;;;;;;19.44;26.40;99218.34;1735245;82;20203;-78
2022/05/24 09:44:46;;;;;;;3.60;1.40;;;;;;;19.44;27.68;99220.52;1706900;82;21065;-78
2022/05/24 09:47:40;;;;;;;1.50;1.33;;;;;;;19.54;26.89;99228.67;1734113;82;21030;-78
2022/05/24 09:50:23;;;;;;;1.17;1.05;;;;;;;19.64;27.44;99226.16;1735757;82;21044;-78
2022/05/24 09:53:13;;;;;;;2.20;1.25;;;;;;;19.75;27.21;99226.68;1735557;82;21264;-83
2022/05/24 09:55:52;;;;;;;1.75;1.10;;;;;;;19.90;27.23;99222.81;1735515;82;21107;-77
2022/05/24 09:58:35;;;;;;;6.65;1.40;;;;;;;20.01;26.09;99220.16;1737349;81;21124;-76
2022/05/24 10:01:14;;;;;;;3.70;1.20;;;;;;;20.10;27.37;99231.09;1738530;82;21589;-74
2022/05/24 10:03:49;;;;;;;2.17;1.32;;;;;;;20.16;27.16;99226.13;1738388;82;21088;-78
2022/05/24 10:06:30;;;;;;;6.92;1.55;;;;;;;20.22;26.48;99222.97;1738507;82;22013;-76
2022/05/24 10:09:01;;;;;;;3.65;1.20;;;;;;;20.28;26.77;99224.30;1738092;82;21054;-76
2022/05/24 10:11:49;;;;;;;8.73;1.30;;;;;;;20.29;26.08;99217.99;1710718;82;21038;-79
2022/05/24 10:14:49;;;;;;;1.67;1.00;;;;;;;20.35;26.03;99205.45;1736761;82;21035;-77
2022/05/24 10:17:27;;;;;;;172.53;123.00;;;;;;;20.36;25.16;99205.83;1689525;84;21181;-77
2022/05/24 10:20:17;;;;;;;11.22;7.08;;;;;;;20.32;26.67;99212.88;1690025;84;21148;-80
2022/05/24 10:23:06;;;;;;;3.50;2.00;;;;;;;20.37;28.12;99215.53;1663558;82;21078;-79
2022/05/24 10:25:41;;;;;;;2.77;1.40;;;;;;;20.48;28.20;99215.18;1737251;82;21145;-76
2022/05/24 10:28:25;;;;;;;5.28;1.10;;;;;;;20.59;26.82;99210.66;1737570;82;21125;-77
2022/05/24 10:31:17;;;;;;;1.35;1.10;;;;;;;20.63;25.92;99207.28;1737055;82;20979;-75
2022/05/24 10:40:37;;;;;;;1.15;1.05;;;;;;;20.73;25.99;99208.23;1736945;82;21599;-77
2022/05/24 10:43:21;;;;;;;5.15;1.32;;;;;;;20.85;25.81;99209.55;1736331;82;21122;-77
2022/05/24 10:46:00;;;;;;;3.45;1.05;;;;;;;20.96;25.64;99202.80;1737284;82;21062;-76
2022/05/24 10:48:50;;;;;;;1.42;1.22;;;;;;;21.03;25.97;99201.33;1736291;82;21194;-76
2022/05/24 10:51:39;;;;;;;4.42;1.25;;;;;;;21.14;24.44;99195.91;1755688;81;21003;-77
2022/05/24 10:54:16;;;;;;;3.77;1.10;;;;;;;21.18;25.83;99199.17;1755629;81;21121;-77
2022/05/24 10:57:02;;;;;;;3.00;0.98;;;;;;;21.25;24.90;99196.84;1729248;83;21030;-77
2022/05/24 10:59:50;;;;;;;3.60;0.98;;;;;;;21.27;25.91;99197.58;1727809;83;21573;-77
2022/05/24 11:02:23;;;;;;;2.75;0.90;;;;;;;21.34;25.59;99194.73;1728797;83;21596;-77
2022/05/24 11:05:16;;;;;;;1.15;1.00;;;;;;;21.42;25.73;99198.95;1729099;83;21062;-80
2022/05/24 11:07:42;;;;;;;1.37;1.00;;;;;;;21.50;25.65;99203.67;1728962;83;21502;-77
2022/05/24 11:10:29;;;;;;;4.58;1.25;;;;;;;21.54;24.86;99194.91;1728820;83;21422;-76
2022/05/24 11:13:01;;;;;;;4.45;1.10;;;;;;;21.55;25.25;99195.25;1730140;82;21058;-79
2022/05/24 11:15:33;;;;;;;0.82;0.80;;;;;;;21.66;26.34;99197.87;1729618;82;21591;-84
2022/05/24 11:18:06;;;;;;;17.82;12.30;;;;;;;21.71;24.45;99202.33;1750894;81;21118;-78
2022/05/24 11:20:37;;;;;;;1.77;1.67;;;;;;;21.67;24.38;99200.41;1750429;81;21116;-79
2022/05/24 11:23:15;;;;;;;1.15;1.00;;;;;;;21.67;24.27;99192.85;1750927;81;21132;-79
2022/05/24 11:25:49;;;;;;;1.32;0.93;;;;;;;21.74;24.30;99199.40;1750861;81;21746;-75
2022/05/24 11:28:20;;;;;;;1.52;0.82;;;;;;;21.76;24.32;99191.23;1751188;81;21109;-79
2022/05/24 11:30:48;;;;;;;1.42;0.90;;;;;;;21.64;24.21;99197.16;1750007;81;21057;-78
2022/05/24 11:33:26;;;;;;;1.20;0.98;;;;;;;21.58;24.64;99199.85;1751101;81;21380;-77
2022/05/24 11:35:54;;;;;;;5.95;1.00;;;;;;;21.63;24.63;99196.28;1737880;81;21580;-79
2022/05/24 11:38:31;;;;;;;0.80;0.80;;;;;;;21.71;24.36;99192.97;1750267;81;21144;-78
2022/05/24 11:41:19;;;;;;;2.27;1.15;;;;;;;21.77;24.59;99195.13;1751005;81;21120;-79
2022/05/24 11:43:51;;;;;;;3.92;0.82;;;;;;;21.82;25.40;99194.23;1751133;81;21037;-79
2022/05/24 11:46:41;;;;;;;1.10;1.07;;;;;;;21.96;24.50;99190.84;1751129;81;20994;-79
2022/05/24 11:49:21;;;;;;;3.25;0.85;;;;;;;22.00;23.58;99197.62;1750992;81;21074;-79
2022/05/24 11:51:54;;;;;;;1.72;0.80;;;;;;;21.95;24.25;99192.66;1750972;81;21061;-81
2022/05/24 11:54:31;;;;;;;0.88;0.80;;;;;;;22.02;24.42;99192.97;1750722;81;21086;-76
2022/05/24 11:57:09;;;;;;;2.17;1.12;;;;;;;22.16;24.90;99191.78;1750355;81;21061;-75
2022/05/24 11:59:49;;;;;;;2.42;0.90;;;;;;;22.28;24.62;99192.52;1746054;81;21502;-73
2022/05/24 12:07:54;;;;;;;1.35;1.00;;;;;;;22.32;25.48;99191.29;1740960;82;21518;-75
2022/05/24 13:45:27;;;;;;;3.40;1.35;;;;;;;23.45;22.49;99159.12;1739145;81;20952;-77
2022/05/24 13:47:57;;;;;;;1.15;0.90;;;;;;;23.30;24.03;99162.27;1745514;81;21016;-78
2022/05/24 13:50:37;;;;;;;4.47;1.32;;;;;;;23.54;24.23;99158.27;1731034;81;20984;-76
2022/05/24 13:53:36;;;;;;;1.07;0.98;;;;;;;23.78;23.69;99154.24;1728718;82;21593;-77
2022/05/24 13:56:07;;;;;;;3.30;1.40;;;;;;;23.85;23.65;99156.72;1733653;81;21240;-78
2022/05/24 13:58:39;;;;;;;6.05;2.10;;;;;;;23.87;23.14;99149.34;1739093;80;21893;-77
2022/05/24 14:01:11;;;;;;;2.83;1.55;;;;;;;23.90;23.77;99153.09;1743665;80;21013;-77
2022/05/24 14:03:49;;;;;;;4.85;1.22;;;;;;;24.04;23.26;99153.96;1745531;79;21004;-77
2022/05/24 14:06:21;;;;;;;5.58;1.20;;;;;;;24.10;22.90;99147.97;1749563;80;21054;-77